Time;durP1;ratioP1;P1;durP2;ratioP2;P2;SDS_P1;SDS_P2;PMS_P1;PMS_P2;Temp;Humidity;BMP_temperature;BMP_pressure;BME280_temperature;BME280_humidity;BME280_pressure;Samples;Min_cycle;Max_cycle;Signal;HPM_P1;HPM_P2
2023/11/08 00:00:51;;;;;;;10.20;10.00;;;9.10;99.90;;;;;;5018360;28;20470;-71
2023/11/08 00:03:20;;;;;;;10.33;10.13;;;9.10;99.90;;;;;;5014092;28;20479;-71
2023/11/08 00:05:47;;;;;;;10.90;10.60;;;9.10;99.90;;;;;;5026012;28;20873;-71
2023/11/08 00:08:13;;;;;;;10.77;10.47;;;9.10;99.90;;;;;;5027669;28;20457;-70
2023/11/08 00:10:40;;;;;;;10.73;10.43;;;9.20;99.90;;;;;;5015190;28;21091;-70
2023/11/08 00:13:07;;;;;;;10.90;10.60;;;9.20;99.90;;;;;;5028585;27;21016;-70
2023/11/08 00:15:34;;;;;;;10.83;10.53;;;9.20;99.90;;;;;;5018059;28;20567;-70
2023/11/08 00:18:01;;;;;;;10.77;10.47;;;9.20;99.90;;;;;;5026579;28;20465;-70
2023/11/08 00:20:29;;;;;;;10.83;10.53;;;9.20;99.90;;;;;;5027531;28;20449;-70
2023/11/08 00:22:55;;;;;;;10.50;10.30;;;9.20;99.90;;;;;;5022162;28;20828;-70
2023/11/08 00:25:22;;;;;;;10.90;10.60;;;9.20;99.90;;;;;;5016670;28;20469;-71
2023/11/08 00:27:50;;;;;;;11.10;10.80;;;9.20;99.90;;;;;;5023775;28;20917;-71
2023/11/08 00:30:17;;;;;;;10.97;10.67;;;9.20;99.90;;;;;;5027082;28;20853;-71
2023/11/08 00:32:43;;;;;;;10.70;10.47;;;9.10;99.90;;;;;;5021810;28;20466;-70
2023/11/08 00:35:10;;;;;;;10.50;10.30;;;9.00;99.90;;;;;;5017635;28;20474;-70
2023/11/08 00:37:39;;;;;;;10.13;9.93;;;9.00;99.90;;;;;;5022758;28;20485;-72
2023/11/08 00:40:08;;;;;;;10.30;10.10;;;8.90;99.90;;;;;;5013375;28;20848;-70
2023/11/08 00:42:35;;;;;;;10.10;9.90;;;8.90;99.90;;;;;;5023924;28;20814;-70
2023/11/08 00:45:02;;;;;;;10.30;10.10;;;8.90;99.90;;;;;;5019837;28;20488;-70
2023/11/08 00:47:28;;;;;;;9.80;9.60;;;9.00;99.90;;;;;;5027318;28;20853;-70
2023/11/08 00:49:55;;;;;;;9.63;9.43;;;9.00;99.90;;;;;;5018680;28;20554;-70
2023/11/08 00:52:23;;;;;;;9.97;9.77;;;9.00;99.90;;;;;;5023255;28;20461;-72
2023/11/08 00:54:51;;;;;;;9.93;9.73;;;9.00;99.90;;;;;;5009967;28;20474;-70
2023/11/08 00:57:18;;;;;;;10.43;10.23;;;9.00;99.90;;;;;;5021667;28;20838;-73
2023/11/08 00:59:45;;;;;;;10.30;10.10;;;8.90;99.90;;;;;;5012983;28;20470;-70
2023/11/08 01:02:11;;;;;;;10.00;9.80;;;8.90;99.90;;;;;;5026238;28;20450;-70
2023/11/08 01:04:39;;;;;;;9.63;9.43;;;9.00;99.90;;;;;;5026878;28;20457;-72
2023/11/08 01:07:06;;;;;;;9.83;9.63;;;9.00;99.90;;;;;;5018014;28;20494;-71
2023/11/08 01:09:33;;;;;;;9.83;9.63;;;9.10;99.90;;;;;;5034658;27;20458;-72
2023/11/08 01:12:03;;;;;;;9.43;9.23;;;9.10;99.90;;;;;;5019659;28;20473;-71
2023/11/08 01:14:30;;;;;;;9.90;9.70;;;9.10;99.90;;;;;;5017428;28;20560;-71
2023/11/08 01:16:57;;;;;;;9.60;9.40;;;9.20;99.90;;;;;;5024112;28;20503;-70
2023/11/08 01:19:24;;;;;;;10.57;10.37;;;9.10;99.90;;;;;;5021867;28;20936;-70
2023/11/08 01:21:52;;;;;;;10.40;10.20;;;9.20;99.90;;;;;;5026743;28;20457;-71
2023/11/08 01:24:19;;;;;;;10.40;10.20;;;9.30;99.90;;;;;;5016958;28;21028;-70
2023/11/08 01:26:46;;;;;;;9.33;9.13;;;9.20;99.90;;;;;;5026362;28;20450;-71
2023/11/08 01:29:14;;;;;;;9.90;9.70;;;9.30;99.90;;;;;;5026550;28;20514;-73
2023/11/08 01:31:42;;;;;;;10.17;9.97;;;9.30;99.90;;;;;;5011215;28;20497;-70
2023/11/08 01:34:11;;;;;;;9.77;9.57;;;9.30;99.90;;;;;;5018229;28;20453;-70
2023/11/08 01:36:38;;;;;;;9.83;9.63;;;9.30;99.90;;;;;;5016067;28;20461;-74
2023/11/08 01:39:05;;;;;;;10.10;9.90;;;9.30;99.90;;;;;;5026354;28;20499;-70
2023/11/08 01:41:32;;;;;;;9.53;9.33;;;9.30;99.90;;;;;;5021388;28;20474;-74
2023/11/08 01:44:00;;;;;;;9.83;9.63;;;9.30;99.90;;;;;;5026601;28;20521;-74
2023/11/08 01:46:28;;;;;;;10.60;10.40;;;9.30;99.90;;;;;;5021191;28;20493;-71
2023/11/08 01:48:56;;;;;;;10.60;10.40;;;9.20;99.90;;;;;;5009332;28;20482;-72
2023/11/08 01:51:25;;;;;;;10.50;10.30;;;9.20;99.90;;;;;;5016967;28;20493;-71
2023/11/08 01:53:54;;;;;;;10.13;9.93;;;9.30;99.90;;;;;;5017785;28;20462;-73
2023/11/08 01:56:22;;;;;;;10.43;10.23;;;9.20;99.90;;;;;;5019988;28;20481;-71
2023/11/08 01:58:52;;;;;;;10.90;10.60;;;9.30;99.90;;;;;;5013572;28;20556;-72
2023/11/08 02:01:19;;;;;;;10.37;10.17;;;9.20;99.90;;;;;;5025318;28;20876;-72
2023/11/08 02:03:48;;;;;;;10.40;10.20;;;9.20;99.90;;;;;;5021017;28;20507;-71
2023/11/08 02:06:15;;;;;;;10.53;10.33;;;9.20;99.90;;;;;;5016955;28;21016;-74
2023/11/08 02:08:42;;;;;;;10.43;10.23;;;9.20;99.90;;;;;;5033464;27;20930;-74
2023/11/08 02:11:09;;;;;;;10.47;10.27;;;9.30;99.90;;;;;;5007133;28;20497;-71
2023/11/08 02:13:36;;;;;;;10.10;9.90;;;9.30;99.90;;;;;;5025772;28;20461;-71
2023/11/08 02:16:03;;;;;;;10.60;10.40;;;9.20;99.90;;;;;;5025728;28;20457;-72
2023/11/08 02:18:30;;;;;;;10.17;9.97;;;9.20;99.90;;;;;;5025968;28;20458;-72
2023/11/08 02:20:59;;;;;;;11.07;10.77;;;9.30;99.90;;;;;;5020786;28;20461;-71
2023/11/08 02:23:26;;;;;;;10.53;10.33;;;9.30;99.90;;;;;;5019929;28;20990;-71
2023/11/08 02:25:56;;;;;;;10.73;10.53;;;9.20;99.90;;;;;;5025882;28;20450;-71
2023/11/08 02:28:24;;;;;;;10.37;10.17;;;9.20;99.90;;;;;;5015145;28;20493;-72
2023/11/08 02:30:54;;;;;;;10.60;10.40;;;9.10;99.90;;;;;;5022668;28;20536;-71
2023/11/08 02:33:20;;;;;;;10.77;10.57;;;9.10;99.90;;;;;;5014768;28;20469;-74
2023/11/08 02:35:47;;;;;;;10.60;10.40;;;9.00;99.90;;;;;;5025382;28;20824;-73
2023/11/08 02:38:15;;;;;;;10.43;10.23;;;9.10;99.90;;;;;;5025276;28;20464;-71
2023/11/08 02:40:43;;;;;;;10.90;10.63;;;9.10;99.90;;;;;;5025623;28;20467;-74
2023/11/08 02:43:11;;;;;;;10.47;10.27;;;9.00;99.90;;;;;;5018188;28;20952;-71
2023/11/08 02:45:38;;;;;;;10.97;10.67;;;9.00;99.90;;;;;;5008363;28;20493;-71
2023/11/08 02:48:06;;;;;;;10.20;10.00;;;8.90;99.90;;;;;;5019356;28;20854;-71
2023/11/08 02:50:33;;;;;;;9.93;9.73;;;8.90;99.90;;;;;;5025669;28;20505;-71
2023/11/08 02:53:00;;;;;;;10.40;10.20;;;8.90;99.90;;;;;;5025606;28;20478;-71
2023/11/08 02:55:28;;;;;;;10.70;10.50;;;8.90;99.90;;;;;;5015944;28;20465;-71
2023/11/08 02:57:54;;;;;;;10.47;10.27;;;8.80;99.90;;;;;;5019009;28;20457;-71
2023/11/08 03:00:23;;;;;;;10.13;9.93;;;8.80;99.90;;;;;;5022681;28;20473;-71
2023/11/08 03:02:51;;;;;;;10.20;10.00;;;8.70;99.90;;;;;;5025865;28;20472;-71
2023/11/08 03:05:21;;;;;;;10.17;9.97;;;8.70;99.90;;;;;;5012956;28;20457;-74
2023/11/08 03:07:48;;;;;;;10.00;9.80;;;8.60;99.90;;;;;;5017806;28;20470;-72
2023/11/08 03:10:17;;;;;;;9.90;9.70;;;8.60;99.90;;;;;;5071539;27;20512;-75
2023/11/08 03:12:45;;;;;;;10.13;9.93;;;8.50;99.90;;;;;;5028161;27;20461;-72
2023/11/08 03:15:12;;;;;;;10.20;10.00;;;8.40;99.90;;;;;;5024584;28;20558;-72
2023/11/08 03:17:43;;;;;;;9.60;9.40;;;8.40;99.90;;;;;;5029028;28;20453;-72
2023/11/08 03:20:12;;;;;;;9.23;9.03;;;8.40;99.90;;;;;;5015969;28;20483;-72
2023/11/08 03:22:40;;;;;;;9.03;8.83;;;8.30;99.90;;;;;;5016110;28;20469;-72
2023/11/08 03:25:11;;;;;;;9.40;9.20;;;8.30;99.90;;;;;;5027171;28;20453;-72
2023/11/08 03:27:40;;;;;;;9.50;9.30;;;8.30;99.90;;;;;;5025340;28;20553;-73
2023/11/08 03:30:10;;;;;;;9.20;9.00;;;8.30;99.90;;;;;;5028252;28;20465;-73
2023/11/08 03:32:38;;;;;;;9.23;9.03;;;8.30;99.90;;;;;;5022782;28;20904;-72
2023/11/08 03:35:07;;;;;;;9.20;9.00;;;8.30;99.90;;;;;;5024693;28;20500;-72
2023/11/08 03:37:35;;;;;;;8.70;8.57;;;8.30;99.90;;;;;;5024306;28;20481;-72
2023/11/08 03:40:05;;;;;;;9.00;8.80;;;8.20;99.90;;;;;;5020934;28;21047;-72
2023/11/08 03:42:34;;;;;;;8.60;8.50;;;8.20;99.90;;;;;;5027007;28;20461;-74
2023/11/08 03:45:01;;;;;;;8.70;8.60;;;8.10;99.90;;;;;;5022825;28;21168;-72
2023/11/08 03:47:27;;;;;;;8.70;8.60;;;8.10;99.90;;;;;;5019195;28;20470;-71
2023/11/08 03:49:55;;;;;;;8.90;8.70;;;8.10;99.90;;;;;;5025248;28;20853;-72
2023/11/08 03:52:24;;;;;;;8.60;8.50;;;8.10;99.90;;;;;;5028236;28;20535;-72
2023/11/08 03:54:51;;;;;;;9.20;9.00;;;8.10;99.90;;;;;;5017376;28;20477;-72
2023/11/08 03:57:19;;;;;;;8.63;8.53;;;8.00;99.90;;;;;;5017944;28;20476;-69
2023/11/08 03:59:46;;;;;;;8.50;8.40;;;8.00;99.90;;;;;;5023241;28;20997;-72
2023/11/08 04:02:13;;;;;;;8.10;8.00;;;8.00;99.90;;;;;;5020158;28;20970;-72
2023/11/08 04:04:39;;;;;;;8.20;8.10;;;8.00;99.90;;;;;;5022072;28;20481;-75
2023/11/08 04:07:06;;;;;;;8.47;8.37;;;8.00;99.90;;;;;;5015801;28;20812;-74
2023/11/08 04:09:35;;;;;;;8.10;8.00;;;8.00;99.90;;;;;;5020989;28;20474;-72
2023/11/08 04:12:01;;;;;;;8.30;8.20;;;7.90;99.90;;;;;;5017270;27;20493;-72
2023/11/08 04:14:28;;;;;;;8.20;8.10;;;7.90;99.90;;;;;;5028601;28;20695;-72
2023/11/08 04:16:55;;;;;;;8.30;8.20;;;7.80;99.90;;;;;;5027154;28;20935;-74
2023/11/08 04:19:22;;;;;;;7.87;7.77;;;7.80;99.90;;;;;;5026387;28;20473;-74
2023/11/08 04:21:49;;;;;;;7.90;7.80;;;7.80;99.90;;;;;;5008444;28;20455;-72
2023/11/08 04:24:16;;;;;;;8.17;8.07;;;7.80;99.90;;;;;;5026836;28;20465;-72
2023/11/08 04:26:44;;;;;;;7.80;7.70;;;7.70;99.90;;;;;;5021502;28;20540;-72
2023/11/08 04:29:13;;;;;;;7.60;7.50;;;7.80;99.90;;;;;;5027756;28;20493;-72
2023/11/08 04:31:40;;;;;;;7.60;7.50;;;7.70;99.90;;;;;;5021392;28;20492;-72
2023/11/08 04:34:07;;;;;;;7.53;7.43;;;7.70;99.90;;;;;;5026603;28;20864;-73
2023/11/08 04:36:34;;;;;;;7.57;7.47;;;7.80;99.90;;;;;;5017767;28;20474;-72
2023/11/08 04:39:01;;;;;;;7.13;7.03;;;7.70;99.90;;;;;;5017850;28;20505;-72
2023/11/08 04:41:28;;;;;;;7.30;7.20;;;7.70;99.90;;;;;;5016350;28;20891;-74
2023/11/08 04:43:56;;;;;;;7.80;7.70;;;7.70;99.90;;;;;;5027354;28;20489;-74
2023/11/08 04:46:23;;;;;;;7.70;7.60;;;7.70;99.90;;;;;;5023006;28;20553;-73
2023/11/08 04:48:51;;;;;;;7.80;7.70;;;7.60;99.90;;;;;;5007998;28;20486;-72
2023/11/08 04:51:18;;;;;;;7.33;7.23;;;7.70;99.90;;;;;;5024718;28;20495;-72
2023/11/08 04:53:45;;;;;;;7.33;7.23;;;7.70;99.90;;;;;;5027040;28;20457;-72
2023/11/08 04:56:12;;;;;;;7.13;7.03;;;7.60;99.90;;;;;;5020911;28;20544;-72
2023/11/08 04:58:39;;;;;;;6.93;6.83;;;7.60;99.90;;;;;;5019736;28;20468;-71
2023/11/08 05:01:08;;;;;;;7.40;7.30;;;7.60;99.90;;;;;;5024453;28;20450;-71
2023/11/08 05:03:35;;;;;;;7.80;7.70;;;7.60;99.90;;;;;;5013507;28;20466;-71
2023/11/08 05:06:01;;;;;;;7.60;7.50;;;7.60;99.90;;;;;;5009286;28;20972;-72
2023/11/08 05:08:29;;;;;;;7.33;7.23;;;7.60;99.90;;;;;;5019206;28;20456;-71
2023/11/08 05:10:55;;;;;;;6.43;6.33;;;7.60;99.90;;;;;;5026380;27;20481;-71
2023/11/08 05:13:24;;;;;;;7.50;7.40;;;7.50;99.90;;;;;;5020875;27;20461;-72
2023/11/08 05:15:50;;;;;;;6.77;6.67;;;7.50;99.90;;;;;;5013266;28;21162;-71
2023/11/08 05:18:19;;;;;;;7.23;7.13;;;7.50;99.90;;;;;;5023394;28;20468;-72
2023/11/08 05:20:46;;;;;;;6.87;6.77;;;7.50;99.90;;;;;;5019862;28;20511;-71
2023/11/08 05:23:12;;;;;;;6.90;6.80;;;7.50;99.90;;;;;;5011062;28;20476;-72
2023/11/08 05:25:40;;;;;;;6.90;6.80;;;7.50;99.90;;;;;;5024665;28;21182;-71
2023/11/08 05:28:07;;;;;;;6.50;6.40;;;7.50;99.90;;;;;;5023318;28;20477;-71
2023/11/08 05:30:35;;;;;;;7.10;7.00;;;7.50;99.90;;;;;;5017102;28;20844;-71
2023/11/08 05:33:02;;;;;;;7.23;7.13;;;7.50;99.90;;;;;;5010912;28;20497;-71
2023/11/08 05:35:30;;;;;;;7.57;7.47;;;7.50;99.90;;;;;;5020805;28;20464;-71
2023/11/08 05:37:57;;;;;;;7.00;6.90;;;7.50;99.90;;;;;;5020502;28;20473;-71
2023/11/08 05:40:24;;;;;;;7.33;7.23;;;7.50;99.90;;;;;;5014313;28;20518;-71
2023/11/08 05:42:53;;;;;;;7.40;7.30;;;7.40;99.90;;;;;;5014371;28;20466;-71
2023/11/08 05:45:21;;;;;;;6.83;6.73;;;7.40;99.90;;;;;;5016363;28;20489;-71
2023/11/08 05:47:47;;;;;;;7.07;6.97;;;7.40;99.90;;;;;;5013836;28;20461;-71
2023/11/08 05:50:14;;;;;;;7.37;7.27;;;7.40;99.90;;;;;;5024104;28;20457;-71
2023/11/08 05:52:44;;;;;;;6.90;6.80;;;7.40;99.90;;;;;;5023617;28;21263;-71
2023/11/08 05:55:11;;;;;;;7.13;7.03;;;7.40;99.90;;;;;;5023176;28;20471;-71
2023/11/08 05:57:39;;;;;;;7.23;7.13;;;7.40;99.90;;;;;;5007481;28;20557;-71
2023/11/08 06:00:09;;;;;;;7.17;7.07;;;7.40;99.90;;;;;;5023081;28;20457;-71
2023/11/08 06:02:35;;;;;;;6.50;6.40;;;7.50;99.90;;;;;;5015070;28;21286;-71
2023/11/08 06:05:04;;;;;;;6.53;6.43;;;7.50;99.90;;;;;;5020224;28;20465;-71
2023/11/08 06:07:31;;;;;;;6.60;6.50;;;7.50;99.90;;;;;;5012405;28;20792;-71
2023/11/08 06:10:00;;;;;;;6.43;6.33;;;7.60;99.90;;;;;;5057961;27;20549;-71
2023/11/08 06:12:28;;;;;;;6.80;6.70;;;7.60;99.90;;;;;;5012718;28;20472;-71
2023/11/08 06:14:55;;;;;;;6.50;6.40;;;7.70;99.90;;;;;;5013562;28;20541;-71
2023/11/08 06:17:22;;;;;;;6.50;6.40;;;7.70;99.90;;;;;;5023636;28;20859;-71
2023/11/08 06:19:49;;;;;;;6.43;6.33;;;7.70;99.90;;;;;;5024590;28;20457;-71
2023/11/08 06:22:16;;;;;;;6.37;6.27;;;7.70;99.90;;;;;;5019648;28;20497;-71
2023/11/08 06:24:44;;;;;;;6.60;6.50;;;7.70;99.90;;;;;;5015511;28;20480;-71
2023/11/08 06:27:12;;;;;;;6.90;6.80;;;7.80;99.90;;;;;;5020356;28;20453;-71
2023/11/08 06:29:39;;;;;;;6.47;6.37;;;7.80;99.90;;;;;;5018691;28;20479;-71
2023/11/08 06:32:07;;;;;;;6.57;6.47;;;7.80;99.90;;;;;;5014733;28;21178;-71
2023/11/08 06:34:34;;;;;;;6.80;6.70;;;7.90;99.90;;;;;;5018164;28;20990;-71
2023/11/08 06:37:01;;;;;;;7.00;6.90;;;7.90;99.90;;;;;;5023065;28;20465;-71
2023/11/08 06:39:28;;;;;;;7.30;7.20;;;8.00;99.90;;;;;;5018258;28;20885;-71
2023/11/08 06:41:56;;;;;;;6.60;6.50;;;8.00;99.90;;;;;;5014826;28;20490;-71
2023/11/08 06:44:25;;;;;;;7.00;6.90;;;8.10;99.90;;;;;;5027192;28;20577;-71
2023/11/08 06:46:52;;;;;;;7.13;7.03;;;8.10;99.90;;;;;;5018909;28;20462;-72
2023/11/08 06:49:19;;;;;;;7.03;6.93;;;8.20;99.90;;;;;;5012465;28;20601;-71
2023/11/08 06:51:47;;;;;;;7.13;7.03;;;8.20;99.90;;;;;;5023891;28;20496;-71
2023/11/08 06:54:14;;;;;;;6.77;6.67;;;8.20;99.90;;;;;;5026648;28;20469;-74
2023/11/08 06:56:41;;;;;;;7.10;7.00;;;8.20;99.90;;;;;;5021914;28;20449;-72
2023/11/08 06:59:09;;;;;;;7.17;7.07;;;8.30;99.90;;;;;;5010226;28;20453;-73
2023/11/08 07:01:37;;;;;;;7.63;7.53;;;8.30;99.90;;;;;;5022316;28;20544;-73
2023/11/08 07:04:05;;;;;;;7.40;7.30;;;8.40;99.90;;;;;;5028204;28;20481;-72
2023/11/08 07:06:32;;;;;;;7.23;7.13;;;8.40;99.90;;;;;;5021738;28;20479;-73
2023/11/08 07:08:59;;;;;;;7.57;7.47;;;8.50;99.90;;;;;;5030556;27;20476;-74
2023/11/08 07:11:27;;;;;;;7.40;7.30;;;8.50;99.90;;;;;;5011061;28;20469;-73
2023/11/08 07:13:54;;;;;;;7.70;7.60;;;8.60;99.90;;;;;;5029058;28;21142;-72
2023/11/08 07:16:20;;;;;;;7.83;7.73;;;8.70;99.90;;;;;;5018971;28;20582;-71
2023/11/08 07:18:48;;;;;;;7.90;7.80;;;8.70;99.90;;;;;;5021906;28;20494;-73
2023/11/08 07:21:19;;;;;;;8.27;8.17;;;8.70;99.90;;;;;;5016567;28;20461;-71
2023/11/08 07:23:45;;;;;;;8.40;8.30;;;8.90;99.90;;;;;;5025664;28;20538;-71
2023/11/08 07:26:14;;;;;;;8.80;8.60;;;8.90;99.90;;;;;;5021085;28;20550;-71
2023/11/08 07:28:42;;;;;;;8.50;8.40;;;9.00;99.90;;;;;;5011952;28;20544;-71
2023/11/08 07:31:09;;;;;;;9.13;8.93;;;9.10;99.90;;;;;;5016593;28;20504;-72
2023/11/08 07:33:36;;;;;;;9.27;9.07;;;9.10;99.90;;;;;;5022237;28;20929;-72
2023/11/08 07:36:05;;;;;;;9.13;8.93;;;9.10;99.90;;;;;;5027400;28;20460;-73
2023/11/08 07:38:32;;;;;;;9.10;8.90;;;9.10;99.90;;;;;;5011794;28;20466;-75
2023/11/08 07:41:02;;;;;;;9.10;8.90;;;9.10;99.90;;;;;;5024286;28;20496;-72
2023/11/08 07:43:29;;;;;;;9.23;9.03;;;9.10;99.90;;;;;;5026829;28;21572;-71
2023/11/08 07:45:57;;;;;;;9.30;9.10;;;9.10;99.90;;;;;;5014809;28;20500;-73
2023/11/08 07:48:24;;;;;;;9.00;8.80;;;9.00;99.90;;;;;;5012339;28;20494;-72
2023/11/08 07:50:53;;;;;;;9.80;9.60;;;9.00;99.90;;;;;;5010515;28;20511;-74
2023/11/08 07:53:22;;;;;;;9.40;9.20;;;9.00;99.90;;;;;;5021638;28;20493;-71
2023/11/08 07:55:50;;;;;;;8.93;8.73;;;8.90;99.90;;;;;;5023242;28;20557;-71
2023/11/08 07:58:18;;;;;;;9.30;9.10;;;8.90;99.90;;;;;;5015539;28;20832;-73
2023/11/08 08:00:46;;;;;;;9.00;8.80;;;8.90;99.90;;;;;;5025848;28;20489;-73
2023/11/08 08:03:14;;;;;;;8.87;8.67;;;8.80;99.90;;;;;;5023075;28;20565;-74
2023/11/08 08:05:41;;;;;;;8.63;8.53;;;8.80;99.90;;;;;;5016792;28;20915;-73
2023/11/08 08:08:09;;;;;;;8.93;8.73;;;8.90;99.90;;;;;;5010574;28;20957;-74
2023/11/08 08:10:38;;;;;;;9.30;9.10;;;8.90;99.90;;;;;;5016571;28;20469;-73
2023/11/08 08:13:04;;;;;;;9.60;9.40;;;9.00;99.90;;;;;;5020354;27;20493;-71
2023/11/08 08:15:31;;;;;;;9.47;9.27;;;9.10;99.90;;;;;;5019325;28;20468;-71
2023/11/08 08:17:59;;;;;;;9.30;9.10;;;9.10;99.90;;;;;;5024637;28;20488;-72
2023/11/08 08:20:27;;;;;;;9.80;9.60;;;9.20;99.90;;;;;;5013749;28;20494;-72
2023/11/08 08:22:56;;;;;;;10.00;9.80;;;9.30;99.90;;;;;;5010735;28;20956;-73
2023/11/08 08:25:22;;;;;;;9.90;9.70;;;9.40;99.90;;;;;;5010745;28;20499;-71
2023/11/08 08:28:06;;;;;;;10.43;10.23;;;9.50;99.90;;;;;;5020415;28;21113;-73
2023/11/08 08:30:33;;;;;;;10.17;9.97;;;9.70;99.90;;;;;;5019615;28;20500;-71
2023/11/08 08:33:01;;;;;;;11.00;10.70;;;9.80;99.90;;;;;;5014397;28;20550;-71
2023/11/08 08:35:29;;;;;;;10.90;10.60;;;10.00;99.90;;;;;;5019595;28;20965;-75
2023/11/08 08:37:56;;;;;;;11.10;10.80;;;10.10;99.90;;;;;;5009503;28;21002;-71
2023/11/08 08:40:23;;;;;;;11.07;10.77;;;10.20;99.90;;;;;;5012698;28;20477;-74
2023/11/08 08:42:50;;;;;;;11.30;11.00;;;10.20;99.90;;;;;;5026744;28;20471;-71
2023/11/08 08:45:18;;;;;;;11.40;11.10;;;10.30;99.90;;;;;;5022536;28;20481;-71
2023/11/08 08:47:46;;;;;;;11.60;11.30;;;10.30;99.90;;;;;;5024574;28;20472;-73
2023/11/08 08:50:16;;;;;;;12.00;11.70;;;10.30;99.90;;;;;;5015518;28;20493;-72
2023/11/08 08:52:44;;;;;;;12.10;11.80;;;10.40;99.90;;;;;;5015641;28;20585;-72
2023/11/08 08:55:13;;;;;;;11.80;11.50;;;10.50;99.90;;;;;;5018809;28;20468;-72
2023/11/08 08:57:43;;;;;;;12.60;12.20;;;10.50;99.90;;;;;;5018911;28;20533;-69
2023/11/08 09:00:11;;;;;;;12.50;12.10;;;10.50;99.90;;;;;;5019872;28;20454;-73
2023/11/08 09:02:40;;;;;;;12.50;12.10;;;10.50;99.90;;;;;;5016264;28;20579;-72
2023/11/08 09:05:08;;;;;;;12.73;12.33;;;10.30;99.90;;;;;;5008964;28;20465;-71
2023/11/08 09:07:35;;;;;;;13.20;12.80;;;10.30;99.90;;;;;;5006922;28;20465;-70
2023/11/08 09:10:04;;;;;;;13.30;12.90;;;10.20;99.90;;;;;;5011468;27;20823;-72
2023/11/08 09:12:31;;;;;;;13.53;13.13;;;10.10;99.90;;;;;;5010369;27;20500;-73
2023/11/08 09:14:58;;;;;;;13.50;13.10;;;10.20;99.90;;;;;;5011481;28;20545;-70
2023/11/08 09:17:25;;;;;;;12.90;12.50;;;10.20;99.90;;;;;;5011995;28;20465;-73
2023/11/08 09:19:53;;;;;;;13.30;12.90;;;10.20;99.90;;;;;;5009701;28;20470;-70
2023/11/08 09:22:19;;;;;;;13.27;12.87;;;10.30;99.90;;;;;;5008969;28;20469;-70
2023/11/08 09:24:46;;;;;;;13.87;13.43;;;10.40;99.90;;;;;;5007540;28;20465;-70
2023/11/08 09:27:13;;;;;;;13.80;13.37;;;10.40;99.90;;;;;;5009167;28;20465;-70
2023/11/08 09:29:41;;;;;;;13.87;13.43;;;10.40;99.90;;;;;;5009281;28;20466;-71
2023/11/08 09:32:07;;;;;;;13.63;13.23;;;10.50;99.90;;;;;;5012780;28;20469;-72
2023/11/08 09:34:36;;;;;;;13.40;13.00;;;10.70;99.90;;;;;;5010545;28;20469;-70
2023/11/08 09:37:05;;;;;;;13.60;13.20;;;10.80;99.90;;;;;;5011179;28;20564;-70
2023/11/08 09:39:32;;;;;;;14.30;13.80;;;10.80;99.90;;;;;;5007287;28;20466;-70
2023/11/08 09:41:59;;;;;;;14.13;13.63;;;10.90;99.90;;;;;;5009805;28;20465;-70
2023/11/08 09:44:26;;;;;;;14.50;14.00;;;11.10;99.90;;;;;;5012008;28;20496;-72
2023/11/08 09:46:54;;;;;;;14.87;14.37;;;11.20;99.90;;;;;;5010191;28;20463;-70
2023/11/08 09:49:23;;;;;;;15.10;14.60;;;11.30;99.90;;;;;;5006534;28;20547;-71
2023/11/08 09:51:50;;;;;;;14.67;14.17;;;11.20;99.90;;;;;;5008096;28;20462;-70
2023/11/08 09:54:18;;;;;;;14.73;14.23;;;11.30;99.90;;;;;;5006757;28;20489;-70
2023/11/08 09:56:46;;;;;;;15.03;14.53;;;11.50;99.90;;;;;;5003463;28;20689;-70
2023/11/08 09:59:14;;;;;;;15.10;14.60;;;11.60;99.90;;;;;;5000432;28;20472;-70
2023/11/08 10:01:44;;;;;;;15.10;14.60;;;11.60;99.90;;;;;;5007302;28;20481;-69
2023/11/08 10:04:13;;;;;;;15.40;14.90;;;11.80;99.90;;;;;;5009501;28;20467;-70
2023/11/08 10:06:41;;;;;;;15.27;14.77;;;11.90;99.90;;;;;;5009783;28;20887;-69
2023/11/08 10:09:08;;;;;;;15.50;15.00;;;12.00;99.90;;;;;;5006364;28;20550;-71
2023/11/08 10:11:38;;;;;;;14.53;14.03;;;11.90;99.90;;;;;;5015624;27;20478;-69
2023/11/08 10:14:05;;;;;;;14.73;14.23;;;11.80;99.90;;;;;;5014256;28;20557;-69
2023/11/08 10:16:45;;;;;;;14.90;14.40;;;11.80;99.90;;;;;;5020840;28;20461;-69
2023/11/08 10:19:12;;;;;;;14.93;14.43;;;11.90;99.90;;;;;;5013113;28;20465;-71
2023/11/08 10:21:46;;;;;;;15.60;15.10;;;11.90;99.90;;;;;;5016185;28;20449;-70
2023/11/08 10:24:15;;;;;;;16.03;15.53;;;11.80;99.90;;;;;;5007901;28;20469;-70
2023/11/08 10:26:43;;;;;;;15.20;14.70;;;11.70;99.90;;;;;;5011209;28;20487;-72
2023/11/08 10:29:12;;;;;;;15.37;14.87;;;11.90;99.90;;;;;;5015826;28;20459;-71
2023/11/08 10:31:40;;;;;;;16.03;15.53;;;11.90;99.90;;;;;;5014634;28;20462;-72
2023/11/08 10:34:08;;;;;;;15.33;14.83;;;11.80;99.90;;;;;;5012650;28;20514;-70
2023/11/08 10:36:36;;;;;;;15.57;15.07;;;12.00;99.90;;;;;;5009241;28;20478;-70
2023/11/08 10:39:06;;;;;;;15.23;14.73;;;12.00;99.90;;;;;;5008836;28;20829;-69
2023/11/08 10:41:34;;;;;;;15.80;15.30;;;12.00;99.90;;;;;;5016131;28;20479;-70
2023/11/08 10:44:10;;;;;;;15.57;15.07;;;11.60;99.90;;;;;;5018095;28;20589;-70
2023/11/08 10:46:40;;;;;;;15.80;15.30;;;11.70;99.90;;;;;;5015689;28;20955;-70
2023/11/08 10:49:09;;;;;;;16.10;15.50;;;11.80;99.90;;;;;;5010682;28;21021;-70
2023/11/08 10:51:37;;;;;;;15.20;14.70;;;11.80;99.90;;;;;;5009975;28;20489;-70
2023/11/08 10:54:05;;;;;;;14.83;14.33;;;11.80;99.90;;;;;;5018463;28;20589;-72
2023/11/08 10:56:33;;;;;;;13.67;13.27;;;11.90;99.90;;;;;;5016815;28;20462;-72
2023/11/08 10:59:03;;;;;;;15.30;14.77;;;11.90;99.90;;;;;;5018088;28;20541;-69
2023/11/08 11:01:32;;;;;;;15.30;14.80;;;11.90;99.90;;;;;;5020410;28;20451;-70
2023/11/08 11:04:09;;;;;;;14.50;14.00;;;12.10;99.90;;;;;;5013123;28;20968;-72
2023/11/08 11:06:37;;;;;;;14.33;13.83;;;12.20;99.90;;;;;;5009894;28;20471;-70
2023/11/08 11:09:08;;;;;;;14.80;14.30;;;12.20;99.90;;;;;;5038367;28;21003;-70
2023/11/08 11:11:37;;;;;;;14.53;14.03;;;12.30;99.90;;;;;;5047553;27;20472;-74
2023/11/08 11:14:16;;;;;;;14.50;14.00;;;12.30;99.90;;;;;;5018916;28;20505;-70
2023/11/08 11:16:52;;;;;;;14.87;14.37;;;12.40;99.90;;;;;;5014715;28;20478;-73
2023/11/08 11:19:22;;;;;;;15.10;14.60;;;12.70;99.90;;;;;;5007175;28;20465;-71
2023/11/08 11:21:54;;;;;;;15.33;14.73;;;12.90;99.90;;;;;;5015656;28;20460;-70
2023/11/08 11:24:40;;;;;;;14.90;14.40;;;12.80;99.90;;;;;;5015629;28;20467;-70
2023/11/08 11:27:08;;;;;;;14.73;14.23;;;12.60;99.90;;;;;;5021415;28;20462;-70
2023/11/08 11:29:35;;;;;;;14.80;14.30;;;12.80;99.90;;;;;;5027969;28;20455;-71
2023/11/08 11:32:06;;;;;;;14.70;14.20;;;12.90;99.90;;;;;;5022783;28;20472;-74
2023/11/08 11:34:43;;;;;;;15.30;14.70;;;12.90;99.90;;;;;;5015879;28;21006;-73
2023/11/08 11:37:13;;;;;;;15.20;14.60;;;13.10;99.90;;;;;;5024897;28;20513;-71
2023/11/08 11:39:42;;;;;;;14.77;14.27;;;13.30;99.90;;;;;;5024494;28;20461;-71
2023/11/08 11:42:14;;;;;;;14.80;14.30;;;13.30;99.90;;;;;;5015488;28;20468;-71
2023/11/08 11:44:42;;;;;;;14.57;14.07;;;13.40;99.90;;;;;;5023848;28;20494;-71
2023/11/08 11:47:13;;;;;;;14.60;14.10;;;13.30;99.90;;;;;;5016117;28;20464;-70
2023/11/08 11:49:44;;;;;;;14.10;13.60;;;13.20;99.90;;;;;;5022924;28;20536;-71
2023/11/08 11:52:12;;;;;;;14.63;14.13;;;13.30;99.90;;;;;;5023731;28;20472;-70
2023/11/08 11:54:45;;;;;;;14.60;14.10;;;13.30;99.90;;;;;;5014283;28;20490;-74
2023/11/08 11:57:12;;;;;;;14.57;14.07;;;13.50;99.90;;;;;;5017218;28;20469;-70
2023/11/08 11:59:38;;;;;;;14.87;14.37;;;13.80;99.90;;;;;;5011381;28;20826;-72
2023/11/08 12:02:06;;;;;;;14.43;13.93;;;14.10;99.90;;;;;;5022165;28;20464;-71
2023/11/08 12:04:36;;;;;;;14.73;14.23;;;14.60;99.90;;;;;;5027845;28;20470;-71
2023/11/08 12:07:03;;;;;;;14.70;14.20;;;14.60;99.90;;;;;;5025344;28;20471;-72
2023/11/08 12:09:34;;;;;;;15.00;14.50;;;14.60;99.90;;;;;;5066749;27;21042;-71
2023/11/08 12:12:01;;;;;;;14.60;14.10;;;14.30;99.90;;;;;;5024542;27;20469;-70
2023/11/08 12:14:30;;;;;;;15.23;14.73;;;14.20;99.90;;;;;;5019799;28;20495;-72
2023/11/08 12:16:57;;;;;;;15.27;14.77;;;14.20;99.90;;;;;;5016442;28;20463;-73
2023/11/08 12:19:23;;;;;;;14.83;14.33;;;14.00;99.90;;;;;;5010226;28;20547;-71
2023/11/08 12:21:52;;;;;;;15.47;14.87;;;14.00;99.90;;;;;;5016733;28;20967;-71
2023/11/08 12:24:19;;;;;;;14.93;14.43;;;13.70;99.90;;;;;;5027107;28;20830;-71
2023/11/08 12:26:45;;;;;;;14.30;13.80;;;13.80;99.90;;;;;;5019292;28;20480;-70
2023/11/08 12:29:12;;;;;;;14.60;14.10;;;13.70;99.90;;;;;;5011185;28;20497;-71
2023/11/08 12:31:40;;;;;;;14.93;14.43;;;13.70;99.90;;;;;;5015099;28;20468;-71
2023/11/08 12:34:08;;;;;;;15.03;14.53;;;13.80;99.90;;;;;;5017694;28;20486;-71
2023/11/08 12:36:39;;;;;;;14.70;14.20;;;13.50;99.90;;;;;;5015210;28;21022;-71
2023/11/08 12:39:13;;;;;;;14.70;14.20;;;13.20;99.90;;;;;;5009093;28;20469;-71
2023/11/08 12:41:44;;;;;;;14.40;13.90;;;13.10;99.90;;;;;;5016766;28;20469;-74
2023/11/08 12:44:11;;;;;;;15.00;14.50;;;13.20;99.90;;;;;;5010357;28;20968;-73
2023/11/08 12:46:51;;;;;;;14.77;14.27;;;13.30;99.90;;;;;;5021843;28;20984;-71